Time;durP1;ratioP1;P1;durP2;ratioP2;P2;SDS_P1;SDS_P2;PMS_P1;PMS_P2;Temp;Humidity;BMP_temperature;BMP_pressure;BME280_temperature;BME280_humidity;BME280_pressure;Samples;Min_cycle;Max_cycle;Signal;HPM_P1;HPM_P2
2023/07/04 00:02:04;;;;;;;45.60;13.43;;;;;;;;;;5120648;27;20481;-61
2023/07/04 00:04:32;;;;;;;40.97;11.33;;;17.30;99.90;;;;;;5084260;27;20477;-61
2023/07/04 00:07:00;;;;;;;71.17;16.73;;;;;;;;;;5122855;27;20495;-60
2023/07/04 00:09:27;;;;;;;51.53;11.17;;;;;;;;;;5126910;27;20555;-61
2023/07/04 00:11:54;;;;;;;51.13;14.20;;;;;;;;;;5122933;27;20716;-61
2023/07/04 00:14:21;;;;;;;37.43;10.83;;;;;;;;;;5126648;27;21002;-61
2023/07/04 00:16:49;;;;;;;30.00;10.10;;;17.20;99.90;;;;;;5126577;27;20479;-61
2023/07/04 00:19:17;;;;;;;40.87;10.83;;;;;;;;;;5126578;27;20807;-61
2023/07/04 00:21:45;;;;;;;29.73;9.40;;;;;;;;;;5115351;27;20804;-61
2023/07/04 00:24:12;;;;;;;32.60;9.30;;;;;;;;;;5121201;27;20468;-61
2023/07/04 00:26:40;;;;;;;44.80;11.23;;;;;;;;;;5084727;27;20479;-61
2023/07/04 00:29:07;;;;;;;72.13;17.07;;;17.20;99.90;;;;;;5119025;27;20546;-60
2023/07/04 00:31:34;;;;;;;35.60;10.53;;;;;;;;;;5110871;27;20887;-60
2023/07/04 00:34:02;;;;;;;52.80;13.33;;;17.00;99.90;;;;;;5123415;27;21183;-60
2023/07/04 00:36:30;;;;;;;35.07;9.77;;;17.10;99.90;;;;;;5073657;27;21178;-60
2023/07/04 00:38:57;;;;;;;70.30;16.97;;;;;;;;;;5094495;27;20895;-60
2023/07/04 00:41:26;;;;;;;33.77;9.90;;;16.80;99.90;;;;;;5089158;27;20907;-60
2023/07/04 00:44:00;;;;;;;34.57;12.13;;;15.80;99.90;;;;;;5108721;27;20495;-60
2023/07/04 00:46:38;;;;;;;41.47;10.33;;;16.90;99.90;;;;;;5123061;27;20471;-60
2023/07/04 00:49:17;;;;;;;65.10;15.63;;;16.90;99.90;;;;;;5108341;27;20475;-61
2023/07/04 00:51:45;;;;;;;35.77;10.37;;;;;;;;;;5116725;27;20991;-61
2023/07/04 00:54:12;;;;;;;42.77;12.50;;;;;;;;;;5092618;27;20482;-61
2023/07/04 00:56:40;;;;;;;43.87;11.83;;;16.90;99.90;;;;;;5108285;27;20491;-61
2023/07/04 00:59:08;;;;;;;49.30;12.67;;;16.90;99.90;;;;;;5108483;27;20681;-61
2023/07/04 01:01:35;;;;;;;39.23;11.60;;;;;;;;;;5115559;27;20472;-61
2023/07/04 01:04:04;;;;;;;58.03;15.37;;;;;;;;;;5080752;27;20463;-60
2023/07/04 01:06:39;;;;;;;42.93;12.00;;;16.80;99.90;;;;;;5112719;27;20976;-61
2023/07/04 01:09:08;;;;;;;55.47;13.57;;;16.90;99.90;;;;;;5114728;27;20478;-61
2023/07/04 01:11:42;;;;;;;34.60;10.87;;;16.90;99.90;;;;;;5112276;27;20494;-61
2023/07/04 01:14:19;;;;;;;51.87;13.10;;;17.00;99.90;;;;;;5111863;27;20475;-61
2023/07/04 01:16:47;;;;;;;44.20;12.60;;;;;;;;;;5095070;27;20803;-61
2023/07/04 01:19:22;;;;;;;53.17;13.80;;;17.00;99.90;;;;;;5113471;27;20971;-61
2023/07/04 01:21:55;;;;;;;25.10;8.70;;;16.90;99.90;;;;;;5089454;27;20480;-61
2023/07/04 01:24:30;;;;;;;35.40;11.13;;;16.90;99.90;;;;;;5083231;27;20480;-61
2023/07/04 01:26:59;;;;;;;42.63;12.47;;;16.90;99.90;;;;;;5085225;27;20801;-61
2023/07/04 01:29:26;;;;;;;44.77;11.80;;;17.00;99.90;;;;;;5088627;27;20460;-61
2023/07/04 01:31:53;;;;;;;33.27;10.13;;;17.00;99.90;;;;;;5121256;27;20475;-61
2023/07/04 01:34:21;;;;;;;26.00;9.10;;;;;;;;;;5118776;27;20475;-61
2023/07/04 01:36:49;;;;;;;41.73;12.00;;;;;;;;;;5073812;27;20555;-61
2023/07/04 01:39:16;;;;;;;44.37;13.27;;;;;;;;;;5090559;27;20534;-61
2023/07/04 01:41:45;;;;;;;51.07;11.70;;;17.00;99.90;;;;;;5070943;28;20477;-61
2023/07/04 01:44:16;;;;;;;42.13;13.03;;;17.00;99.90;;;;;;5092516;28;20469;-61
2023/07/04 01:46:43;;;;;;;43.67;13.70;;;16.90;99.90;;;;;;5085113;27;20480;-61
2023/07/04 01:49:10;;;;;;;41.13;12.63;;;16.90;99.90;;;;;;5115358;27;20567;-61
2023/07/04 01:51:39;;;;;;;30.40;11.53;;;16.90;99.90;;;;;;5085659;27;20544;-62
2023/07/04 01:54:07;;;;;;;67.07;16.77;;;17.00;99.90;;;;;;5066209;27;20540;-61
2023/07/04 01:56:36;;;;;;;40.07;11.50;;;17.10;99.90;;;;;;5097609;27;20479;-61
2023/07/04 01:59:04;;;;;;;61.50;15.17;;;;;;;;;;5112793;27;20476;-61
2023/07/04 02:01:32;;;;;;;28.50;9.40;;;17.10;99.90;;;;;;5116469;27;21173;-61
2023/07/04 02:03:59;;;;;;;71.57;18.67;;;;;;;;;;5086754;27;20469;-61
2023/07/04 02:06:26;;;;;;;31.07;9.97;;;17.20;99.90;;;;;;5087041;27;21245;-61
2023/07/04 02:08:54;;;;;;;30.60;11.80;;;;;;;;;;5110027;27;20988;-61
2023/07/04 02:11:21;;;;;;;41.23;13.43;;;17.10;99.90;;;;;;5106507;27;20472;-61
2023/07/04 02:13:48;;;;;;;39.90;13.23;;;18.90;99.90;;;;;;5099777;27;20523;-61
2023/07/04 02:16:15;;;;;;;36.07;12.60;;;17.00;99.90;;;;;;5098839;27;20476;-61
2023/07/04 02:18:43;;;;;;;38.07;12.60;;;17.00;99.90;;;;;;5098905;27;20476;-61
2023/07/04 02:21:10;;;;;;;47.27;15.80;;;;;;;;;;5098823;27;20476;-60
2023/07/04 02:23:37;;;;;;;49.03;15.23;;;;;;;;;;5116867;27;21323;-61
2023/07/04 02:26:04;;;;;;;101.10;23.50;;;16.90;99.90;;;;;;5114066;27;20480;-60
2023/07/04 02:28:31;;;;;;;38.83;14.17;;;16.90;99.90;;;;;;5117546;27;20472;-61
2023/07/04 02:30:59;;;;;;;75.20;19.13;;;16.90;99.90;;;;;;5088925;27;20480;-60
2023/07/04 02:33:27;;;;;;;44.87;15.50;;;16.90;99.90;;;;;;5097654;27;20476;-61
2023/07/04 02:35:55;;;;;;;61.00;19.63;;;16.90;99.90;;;;;;5073689;27;20922;-60
2023/07/04 02:38:22;;;;;;;60.77;16.13;;;;;;;;;;5104457;27;20788;-60
2023/07/04 02:40:51;;;;;;;38.23;15.30;;;16.90;99.90;;;;;;5115595;27;21036;-61
2023/07/04 02:43:18;;;;;;;56.67;18.20;;;;;;;;;;5113994;27;20575;-61
2023/07/04 02:45:46;;;;;;;34.90;13.97;;;;;;;;;;5095301;27;21275;-61
2023/07/04 02:48:13;;;;;;;45.20;17.00;;;;;;;;;;5092198;27;20476;-61
2023/07/04 02:50:40;;;;;;;62.83;18.77;;;;;;;;;;5113658;27;20480;-61
2023/07/04 02:53:08;;;;;;;95.00;21.83;;;16.80;99.90;;;;;;5114269;27;21023;-61
2023/07/04 02:55:35;;;;;;;52.23;17.53;;;;;;;;;;5083852;27;20858;-60
2023/07/04 02:58:03;;;;;;;70.10;20.80;;;;;;;;;;5104078;27;20472;-60
2023/07/04 03:00:30;;;;;;;62.67;20.60;;;;;;;;;;5093550;27;20489;-61
2023/07/04 03:02:57;;;;;;;70.47;21.67;;;16.70;99.90;;;;;;5087121;27;20472;-61
2023/07/04 03:05:26;;;;;;;57.17;20.53;;;16.80;99.90;;;;;;5111230;27;20476;-60
2023/07/04 03:07:53;;;;;;;68.23;20.23;;;;;;;;;;5106498;27;20480;-60
2023/07/04 03:10:22;;;;;;;64.30;22.17;;;16.90;99.90;;;;;;5059226;28;20471;-61
2023/07/04 03:12:49;;;;;;;64.03;19.07;;;;;;;;;;5084130;27;20515;-61
2023/07/04 03:15:16;;;;;;;71.40;21.47;;;;;;;;;;5104413;28;20536;-61
2023/07/04 03:17:43;;;;;;;44.70;17.30;;;16.80;99.90;;;;;;5082788;27;20483;-61
2023/07/04 03:20:12;;;;;;;66.50;20.13;;;16.80;99.90;;;;;;5114267;27;20845;-61
2023/07/04 03:22:40;;;;;;;53.80;18.60;;;16.60;99.90;;;;;;5087335;27;20476;-61
2023/07/04 03:25:07;;;;;;;64.47;20.20;;;16.70;99.90;;;;;;5100968;27;20924;-61
2023/07/04 03:27:37;;;;;;;48.10;17.00;;;;;;;;;;5108343;27;20472;-61
2023/07/04 03:30:05;;;;;;;80.87;23.83;;;16.60;99.90;;;;;;5096308;27;20552;-61
2023/07/04 03:32:33;;;;;;;47.13;16.53;;;;;;;;;;5104457;28;20487;-61
2023/07/04 03:35:01;;;;;;;63.20;19.80;;;16.60;99.90;;;;;;5115588;28;20813;-61
2023/07/04 03:37:28;;;;;;;51.87;17.60;;;;;;;;;;5070970;27;20488;-61
2023/07/04 03:39:57;;;;;;;62.40;19.07;;;16.40;99.90;;;;;;5113618;27;20483;-61
2023/07/04 03:42:24;;;;;;;48.97;15.13;;;16.40;99.90;;;;;;5106765;27;20579;-61
2023/07/04 03:44:53;;;;;;;43.23;17.93;;;16.30;99.90;;;;;;5077768;27;20985;-61
2023/07/04 03:47:20;;;;;;;60.53;19.07;;;;;;;;;;5111039;27;20479;-61
2023/07/04 03:49:47;;;;;;;43.50;15.33;;;;;;;;;;5118225;27;20865;-61
2023/07/04 03:52:14;;;;;;;57.10;17.90;;;16.10;99.90;;;;;;5103315;27;20490;-61
2023/07/04 03:54:41;;;;;;;73.87;19.70;;;16.10;99.90;;;;;;5097455;27;20911;-61
2023/07/04 03:57:09;;;;;;;56.93;18.30;;;16.10;99.90;;;;;;5078681;27;20927;-61
2023/07/04 03:59:36;;;;;;;60.90;17.30;;;;;;;;;;5060414;27;20836;-61
2023/07/04 04:02:04;;;;;;;60.07;18.03;;;16.10;99.90;;;;;;5073607;28;20485;-60
2023/07/04 04:04:38;;;;;;;42.13;15.23;;;;;;;;;;5101534;27;20472;-60
2023/07/04 04:07:07;;;;;;;71.50;21.80;;;;;;;;;;5107723;27;20476;-60
2023/07/04 04:09:34;;;;;;;43.80;15.80;;;;;;;;;;5103560;27;20559;-60
2023/07/04 04:12:01;;;;;;;67.47;18.87;;;;;;;;;;5099708;27;20912;-60
2023/07/04 04:14:29;;;;;;;47.67;13.60;;;16.10;99.90;;;;;;5092211;27;20482;-60
2023/07/04 04:16:57;;;;;;;58.80;17.77;;;16.10;99.90;;;;;;5082763;27;20787;-60
2023/07/04 04:19:25;;;;;;;35.20;13.00;;;16.00;99.90;;;;;;5081704;27;20480;-60
2023/07/04 04:21:53;;;;;;;45.80;15.90;;;16.00;99.90;;;;;;5101623;27;20468;-61
2023/07/04 04:24:20;;;;;;;45.80;14.30;;;;;;;;;;5101708;27;20466;-60
2023/07/04 04:26:47;;;;;;;42.17;14.63;;;;;;;;;;5107025;27;20469;-60
2023/07/04 04:29:17;;;;;;;54.53;17.43;;;16.10;99.90;;;;;;5096855;27;20556;-60
2023/07/04 04:31:44;;;;;;;37.60;14.87;;;16.10;99.90;;;;;;5075340;27;20481;-60
2023/07/04 04:34:11;;;;;;;53.73;16.53;;;;;;;;;;5084041;28;20484;-60
2023/07/04 04:36:39;;;;;;;45.30;13.97;;;16.00;99.90;;;;;;5092322;27;20974;-60
2023/07/04 04:39:07;;;;;;;64.97;18.10;;;16.00;99.90;;;;;;5105342;27;20473;-61
2023/07/04 04:41:36;;;;;;;42.57;14.23;;;;;;;;;;5057720;28;20716;-60
2023/07/04 04:44:04;;;;;;;60.60;18.70;;;16.10;99.90;;;;;;5097296;27;20556;-60
2023/07/04 04:46:31;;;;;;;50.53;14.73;;;;;;;;;;5094545;27;20527;-60
2023/07/04 04:49:03;;;;;;;68.30;20.10;;;16.10;99.90;;;;;;5082946;28;20857;-60
2023/07/04 04:51:30;;;;;;;43.13;14.43;;;;;;;;;;5069106;28;20488;-60
2023/07/04 04:53:58;;;;;;;59.30;16.90;;;16.20;99.90;;;;;;5067328;28;20478;-60
2023/07/04 04:56:26;;;;;;;48.57;14.90;;;;;;;;;;5062429;28;20489;-60
2023/07/04 04:58:53;;;;;;;39.33;13.77;;;16.30;99.90;;;;;;5076192;28;20484;-60
2023/07/04 05:01:22;;;;;;;36.37;12.10;;;16.30;99.90;;;;;;5057514;27;20474;-60
2023/07/04 05:03:52;;;;;;;37.83;12.60;;;16.30;99.90;;;;;;5100259;27;20496;-60
2023/07/04 05:06:20;;;;;;;47.17;13.30;;;16.50;99.90;;;;;;5106922;27;21556;-60
2023/07/04 05:08:47;;;;;;;35.53;11.63;;;;;;;;;;5091327;27;20469;-61
2023/07/04 05:11:16;;;;;;;43.90;13.37;;;16.60;99.90;;;;;;5098922;27;20891;-61
2023/07/04 05:13:45;;;;;;;36.83;12.60;;;16.80;99.90;;;;;;5100065;27;20473;-60
2023/07/04 05:16:13;;;;;;;35.57;10.87;;;16.70;99.90;;;;;;5092770;28;20478;-61
2023/07/04 05:18:42;;;;;;;43.43;12.00;;;16.70;99.90;;;;;;5094098;27;20485;-61
2023/07/04 05:21:10;;;;;;;46.87;13.83;;;16.80;99.90;;;;;;5094181;27;21042;-61
2023/07/04 05:23:40;;;;;;;39.20;11.83;;;16.80;99.90;;;;;;5096719;27;21555;-60
2023/07/04 05:26:08;;;;;;;48.07;13.00;;;16.90;99.90;;;;;;5085313;28;20481;-61
2023/07/04 05:28:37;;;;;;;50.03;12.97;;;16.90;99.90;;;;;;5093287;28;20726;-60
2023/07/04 05:31:06;;;;;;;60.73;15.90;;;16.90;99.90;;;;;;5097731;27;20464;-60
2023/07/04 05:33:33;;;;;;;32.83;11.43;;;17.00;99.90;;;;;;5096767;28;20477;-61
2023/07/04 05:36:06;;;;;;;66.00;14.50;;;17.00;99.90;;;;;;5104586;27;20522;-61
2023/07/04 05:38:33;;;;;;;33.63;11.10;;;17.10;99.90;;;;;;5102017;27;20638;-60
2023/07/04 05:41:00;;;;;;;46.90;14.20;;;17.10;99.90;;;;;;5111275;27;20469;-60
2023/07/04 05:43:27;;;;;;;47.27;11.80;;;17.10;99.90;;;;;;5076437;28;20905;-60
2023/07/04 05:45:56;;;;;;;21.83;9.03;;;17.10;99.90;;;;;;5066985;28;20500;-60
2023/07/04 05:48:23;;;;;;;28.07;10.10;;;;;;;;;;5093524;28;21008;-60
2023/07/04 05:50:56;;;;;;;30.87;10.07;;;17.20;99.90;;;;;;5095793;28;20520;-60
2023/07/04 05:53:24;;;;;;;40.67;12.47;;;17.30;99.90;;;;;;5083038;28;20484;-60
2023/07/04 05:55:51;;;;;;;38.23;10.07;;;17.40;99.90;;;;;;5097068;28;20481;-60
2023/07/04 05:58:19;;;;;;;34.57;11.20;;;17.40;99.90;;;;;;5097956;27;20477;-60
2023/07/04 06:00:47;;;;;;;32.97;10.00;;;17.50;99.90;;;;;;5091847;27;20489;-61
2023/07/04 06:03:17;;;;;;;44.07;13.20;;;17.60;99.90;;;;;;5109214;27;20469;-61
2023/07/04 06:05:45;;;;;;;27.73;9.90;;;17.70;99.90;;;;;;5086383;28;20465;-61
2023/07/04 06:08:12;;;;;;;31.30;10.77;;;17.90;99.90;;;;;;5080968;28;20477;-61
2023/07/04 06:10:39;;;;;;;35.70;10.27;;;;;;;;;;5096398;28;22823;-62
2023/07/04 06:13:06;;;;;;;63.27;16.50;;;;;;;;;;5091915;28;20478;-61
2023/07/04 06:15:33;;;;;;;34.80;10.80;;;18.10;99.90;;;;;;5097533;27;20895;-61
2023/07/04 06:18:00;;;;;;;58.70;15.23;;;18.10;99.90;;;;;;5093831;28;21298;-61
2023/07/04 06:20:28;;;;;;;34.97;10.83;;;18.10;99.90;;;;;;5087067;28;20481;-62
2023/07/04 06:22:55;;;;;;;32.83;9.87;;;18.10;99.90;;;;;;5079077;27;20473;-61
2023/07/04 06:25:22;;;;;;;57.30;12.40;;;18.20;99.90;;;;;;5054846;27;20465;-61
2023/07/04 06:27:49;;;;;;;26.93;11.00;;;;;;;;;;5083543;28;20481;-62
2023/07/04 06:30:16;;;;;;;38.77;11.20;;;18.50;99.90;;;;;;5093913;28;20831;-61
2023/07/04 06:32:43;;;;;;;33.73;10.57;;;18.40;99.90;;;;;;5095312;28;20843;-61
2023/07/04 06:35:10;;;;;;;38.10;11.80;;;18.50;99.90;;;;;;5091477;28;21017;-61
2023/07/04 06:37:39;;;;;;;40.40;12.27;;;18.60;99.90;;;;;;5095749;28;20484;-62
2023/07/04 06:40:08;;;;;;;52.77;15.37;;;18.70;99.90;;;;;;5108866;27;20478;-62
2023/07/04 06:42:35;;;;;;;33.97;12.30;;;18.80;99.90;;;;;;5091610;27;20494;-61
2023/07/04 06:45:01;;;;;;;41.63;13.57;;;19.00;99.90;;;;;;5078099;28;20473;-61
2023/07/04 06:47:28;;;;;;;39.90;12.50;;;19.10;99.90;;;;;;5077851;28;21261;-61
2023/07/04 06:49:55;;;;;;;44.63;14.10;;;19.30;99.90;;;;;;5089028;28;20470;-61
2023/07/04 06:52:22;;;;;;;27.50;9.87;;;19.30;99.90;;;;;;5089889;28;21016;-62
2023/07/04 06:54:52;;;;;;;20.67;9.03;;;19.40;99.90;;;;;;5093292;28;20500;-61
2023/07/04 06:57:19;;;;;;;29.10;9.73;;;19.30;99.30;;;;;;5096354;28;20476;-62
2023/07/04 06:59:46;;;;;;;35.83;11.87;;;19.60;99.50;;;;;;5096250;28;21155;-61
2023/07/04 07:02:15;;;;;;;27.40;10.20;;;19.70;98.90;;;;;;5085386;28;20481;-61
2023/07/04 07:04:42;;;;;;;27.30;9.53;;;19.80;98.60;;;;;;5079560;27;20468;-61
2023/07/04 07:07:10;;;;;;;37.53;11.73;;;20.00;96.90;;;;;;5095354;27;20973;-61
2023/07/04 07:09:40;;;;;;;32.37;10.23;;;20.00;95.90;;;;;;5084984;28;20878;-61
2023/07/04 07:12:09;;;;;;;54.10;14.13;;;20.10;96.00;;;;;;5090861;27;20485;-61
2023/07/04 07:14:37;;;;;;;21.80;7.80;;;20.10;96.20;;;;;;5112132;27;20489;-61
2023/07/04 07:17:05;;;;;;;57.47;15.03;;;20.30;96.10;;;;;;5081568;28;20922;-61
2023/07/04 07:19:32;;;;;;;37.43;11.73;;;20.30;96.50;;;;;;5086123;28;20493;-60
2023/07/04 07:22:00;;;;;;;44.40;13.47;;;20.20;95.70;;;;;;5077026;28;20591;-61
2023/07/04 07:24:28;;;;;;;33.30;9.87;;;20.30;97.10;;;;;;5082528;27;20469;-61
2023/07/04 07:26:55;;;;;;;37.10;10.97;;;20.40;95.20;;;;;;5097327;27;20458;-60
2023/07/04 07:29:23;;;;;;;35.23;9.07;;;20.40;95.60;;;;;;5085628;28;20484;-60
2023/07/04 07:31:50;;;;;;;36.43;10.57;;;;;;;;;;5089329;27;20481;-60
2023/07/04 07:34:18;;;;;;;32.63;9.80;;;20.50;94.90;;;;;;5100456;27;21010;-60
2023/07/04 07:36:46;;;;;;;30.83;9.60;;;20.60;94.40;;;;;;5079255;28;20481;-61
2023/07/04 07:39:14;;;;;;;40.90;10.20;;;20.70;94.60;;;;;;5096424;28;20561;-60
2023/07/04 07:41:43;;;;;;;40.10;12.47;;;;;;;;;;5084852;28;21283;-60
2023/07/04 07:44:10;;;;;;;42.03;11.37;;;21.00;93.50;;;;;;5090080;28;20480;-61
2023/07/04 07:46:38;;;;;;;26.87;8.53;;;21.20;93.80;;;;;;5082722;28;20480;-61
2023/07/04 07:49:05;;;;;;;43.00;12.00;;;21.20;93.30;;;;;;5070372;27;20477;-61
2023/07/04 07:51:32;;;;;;;35.73;10.80;;;21.20;93.00;;;;;;5105492;27;20478;-61
2023/07/04 07:54:00;;;;;;;50.53;14.07;;;21.40;93.90;;;;;;5065340;28;20483;-61
2023/07/04 07:56:32;;;;;;;37.30;9.83;;;21.10;91.90;;;;;;5080101;28;20789;-61
2023/07/04 07:58:59;;;;;;;48.00;13.37;;;20.90;91.60;;;;;;5075742;28;20853;-61
2023/07/04 08:01:29;;;;;;;37.93;10.97;;;21.00;92.20;;;;;;5092597;28;20889;-61
2023/07/04 08:03:57;;;;;;;43.27;10.97;;;21.00;92.70;;;;;;5091941;28;20907;-61
2023/07/04 08:06:27;;;;;;;29.90;8.83;;;21.00;91.70;;;;;;5092387;28;20561;-61
2023/07/04 08:08:55;;;;;;;22.33;7.77;;;21.10;92.70;;;;;;5094127;28;20781;-60
2023/07/04 08:11:29;;;;;;;36.43;9.43;;;21.20;91.50;;;;;;5088301;28;20945;-61
2023/07/04 08:13:57;;;;;;;55.40;13.87;;;21.20;88.80;;;;;;5085179;27;20489;-61
2023/07/04 08:16:27;;;;;;;29.73;9.50;;;21.30;90.00;;;;;;5095317;27;20836;-61
2023/07/04 08:18:53;;;;;;;39.37;11.47;;;21.30;91.50;;;;;;5096167;28;20491;-60
2023/07/04 08:21:23;;;;;;;27.93;8.57;;;21.30;89.00;;;;;;5087217;28;20978;-60
2023/07/04 08:23:50;;;;;;;21.27;8.13;;;21.40;88.70;;;;;;5086781;28;20455;-61
2023/07/04 08:26:18;;;;;;;38.03;10.30;;;21.60;90.20;;;;;;5074631;28;20675;-61
2023/07/04 08:28:45;;;;;;;26.60;8.17;;;21.70;90.20;;;;;;5099953;27;20480;-61
2023/07/04 08:31:12;;;;;;;36.57;10.77;;;21.90;90.00;;;;;;5105495;27;20465;-61
2023/07/04 08:33:39;;;;;;;25.53;9.00;;;22.00;89.00;;;;;;5093502;27;20464;-61
2023/07/04 08:36:10;;;;;;;43.83;12.43;;;22.20;90.10;;;;;;5090572;27;20755;-61
2023/07/04 08:38:38;;;;;;;33.40;9.07;;;22.50;89.50;;;;;;5088674;28;20479;-61
2023/07/04 08:41:20;;;;;;;56.17;15.93;;;22.70;90.40;;;;;;5075160;27;20475;-62
2023/07/04 08:43:53;;;;;;;23.73;7.93;;;22.90;90.20;;;;;;5099082;27;20484;-61
2023/07/04 08:46:21;;;;;;;27.73;9.47;;;23.00;90.10;;;;;;5070674;28;20481;-62
2023/07/04 08:48:49;;;;;;;24.20;9.27;;;23.10;89.00;;;;;;5089252;28;20465;-61
2023/07/04 08:51:20;;;;;;;27.40;8.97;;;23.00;86.10;;;;;;5079267;28;20485;-62
2023/07/04 08:53:54;;;;;;;20.23;7.60;;;23.10;87.80;;;;;;5085882;28;20494;-62
2023/07/04 08:56:31;;;;;;;46.03;9.87;;;23.10;85.70;;;;;;5089623;27;20455;-62
2023/07/04 08:59:17;;;;;;;47.33;14.33;;;23.10;86.00;;;;;;5081992;28;20508;-62
2023/07/04 09:01:58;;;;;;;24.20;8.30;;;23.00;81.30;;;;;;5074745;28;20490;-62
2023/07/04 09:04:35;;;;;;;28.97;9.43;;;23.10;85.00;;;;;;5086111;27;20501;-62
2023/07/04 09:07:12;;;;;;;41.47;12.27;;;23.10;85.10;;;;;;5089803;27;20454;-62
2023/07/04 09:09:49;;;;;;;34.07;11.17;;;23.10;81.10;;;;;;5085326;27;20800;-62
2023/07/04 09:12:15;;;;;;;28.30;9.90;;;22.90;80.90;;;;;;5097456;27;20469;-62
2023/07/04 09:14:49;;;;;;;27.67;9.20;;;22.80;82.10;;;;;;5093396;27;21001;-62
2023/07/04 09:17:26;;;;;;;27.43;9.30;;;22.80;84.80;;;;;;5098025;28;20469;-61
2023/07/04 09:19:54;;;;;;;25.33;9.70;;;23.10;84.40;;;;;;5077346;28;20448;-61
2023/07/04 09:22:21;;;;;;;27.80;9.17;;;23.20;83.40;;;;;;5089945;28;20486;-62
2023/07/04 09:24:50;;;;;;;27.47;7.70;;;23.60;85.50;;;;;;5081775;28;20484;-62
2023/07/04 09:27:17;;;;;;;35.87;10.80;;;23.80;83.60;;;;;;5090877;28;20997;-61
2023/07/04 09:29:44;;;;;;;35.30;11.20;;;23.90;82.10;;;;;;5078670;28;20511;-61
2023/07/04 09:32:12;;;;;;;27.30;9.50;;;24.10;81.70;;;;;;5085134;28;20483;-62
2023/07/04 09:34:46;;;;;;;34.33;11.53;;;24.20;84.30;;;;;;5096884;28;20800;-61
2023/07/04 09:37:18;;;;;;;27.80;9.90;;;24.30;83.10;;;;;;5080172;28;20481;-62
2023/07/04 09:39:47;;;;;;;44.23;11.63;;;24.30;83.40;;;;;;5107859;27;20459;-62
2023/07/04 09:42:17;;;;;;;62.37;13.67;;;24.50;83.40;;;;;;5093995;27;20448;-62
2023/07/04 09:44:45;;;;;;;32.23;8.57;;;24.70;83.00;;;;;;5071646;28;20572;-62
2023/07/04 09:47:23;;;;;;;26.80;9.20;;;24.90;81.80;;;;;;5091987;27;21003;-62
2023/07/04 09:50:09;;;;;;;38.37;11.20;;;25.00;81.60;;;;;;5091762;27;20450;-62
2023/07/04 09:52:38;;;;;;;28.53;10.00;;;25.00;79.80;;;;;;5083597;27;20537;-62
2023/07/04 09:55:13;;;;;;;54.00;15.13;;;25.10;80.50;;;;;;5091104;27;20907;-62
2023/07/04 09:57:41;;;;;;;27.87;9.83;;;25.10;79.50;;;;;;5082769;28;20477;-63
2023/07/04 10:00:21;;;;;;;45.50;13.33;;;25.20;76.70;;;;;;5083443;27;20454;-62
2023/07/04 10:02:52;;;;;;;20.17;8.27;;;25.30;78.30;;;;;;5080832;27;20841;-62
2023/07/04 10:05:28;;;;;;;29.93;10.20;;;25.40;79.20;;;;;;5072588;27;20826;-62
2023/07/04 10:08:06;;;;;;;36.03;11.40;;;25.40;79.20;;;;;;5079085;27;20826;-62
2023/07/04 10:10:36;;;;;;;35.13;12.37;;;25.50;80.60;;;;;;5067323;27;21267;-62
2023/07/04 10:13:07;;;;;;;46.27;14.27;;;25.60;77.70;;;;;;5100085;27;21044;-62
2023/07/04 10:15:39;;;;;;;27.40;9.23;;;21.50;71.30;;;;;;5079880;27;20441;-62
2023/07/04 10:18:07;;;;;;;43.47;14.20;;;25.70;77.30;;;;;;5088031;27;20470;-62
2023/07/04 10:20:39;;;;;;;33.20;10.67;;;25.40;77.70;;;;;;5100778;27;20549;-62
2023/07/04 10:23:07;;;;;;;57.70;15.47;;;25.50;75.00;;;;;;5094273;28;20792;-62
2023/07/04 10:25:35;;;;;;;57.10;16.13;;;25.50;74.20;;;;;;5087510;27;21011;-62
2023/07/04 10:28:12;;;;;;;56.80;16.57;;;25.50;73.60;;;;;;5083924;27;20447;-62
2023/07/04 10:30:43;;;;;;;30.00;10.57;;;25.40;75.60;;;;;;5081111;28;20474;-62
2023/07/04 10:33:16;;;;;;;36.00;12.47;;;25.50;74.50;;;;;;5093075;28;20501;-62
2023/07/04 10:35:47;;;;;;;21.70;9.00;;;25.60;75.80;;;;;;5093481;28;20485;-63
2023/07/04 10:38:32;;;;;;;30.27;10.27;;;25.50;77.40;;;;;;5080453;27;20887;-63
2023/07/04 10:41:00;;;;;;;44.33;13.83;;;25.40;74.80;;;;;;5046756;28;20545;-63
2023/07/04 10:43:33;;;;;;;35.60;10.50;;;25.50;73.90;;;;;;5084154;27;21198;-63
2023/07/04 10:46:02;;;;;;;43.20;13.33;;;25.50;74.50;;;;;;5092678;27;20479;-63
2023/07/04 10:48:32;;;;;;;26.30;9.40;;;25.30;75.60;;;;;;5064195;28;20496;-63
2023/07/04 10:51:02;;;;;;;48.40;14.90;;;25.50;75.90;;;;;;5082472;27;20840;-63
2023/07/04 10:53:29;;;;;;;27.43;9.67;;;25.50;75.50;;;;;;5093462;27;20488;-63
2023/07/04 10:56:00;;;;;;;45.37;13.20;;;25.40;74.60;;;;;;5097750;27;20840;-62
2023/07/04 10:58:34;;;;;;;25.63;9.13;;;25.40;73.50;;;;;;5078410;27;20482;-63
2023/07/04 11:01:05;;;;;;;44.37;14.17;;;25.20;74.00;;;;;;5074195;28;20609;-62
2023/07/04 11:03:40;;;;;;;32.80;11.07;;;25.30;74.50;;;;;;5081261;27;20480;-62
2023/07/04 11:06:11;;;;;;;47.33;12.87;;;25.20;73.90;;;;;;5093228;28;20994;-62
2023/07/04 11:08:39;;;;;;;29.43;8.90;;;25.40;76.00;;;;;;5094400;27;20881;-63
2023/07/04 11:11:08;;;;;;;50.00;14.10;;;25.40;74.80;;;;;;5091923;27;20492;-63
2023/07/04 11:13:45;;;;;;;26.87;10.00;;;25.30;72.80;;;;;;5105058;28;20482;-63
2023/07/04 11:16:13;;;;;;;26.47;8.90;;;25.60;76.30;;;;;;5093743;28;20465;-62
2023/07/04 11:18:43;;;;;;;29.27;10.50;;;25.60;74.10;;;;;;5082927;28;20477;-62
2023/07/04 11:21:12;;;;;;;43.20;12.07;;;25.70;74.90;;;;;;5080580;28;20597;-62
2023/07/04 11:23:49;;;;;;;28.30;10.80;;;25.70;73.80;;;;;;5096506;28;20473;-61
2023/07/04 11:26:17;;;;;;;33.43;11.17;;;25.70;74.40;;;;;;5076219;28;20883;-62
2023/07/04 11:28:48;;;;;;;33.53;10.17;;;25.90;73.80;;;;;;5081274;28;20469;-63
2023/07/04 11:31:21;;;;;;;26.50;10.23;;;26.10;73.30;;;;;;5087709;28;20454;-62
2023/07/04 11:34:10;;;;;;;18.57;7.83;;;26.10;72.90;;;;;;5090715;28;20486;-62
2023/07/04 11:36:42;;;;;;;34.50;11.40;;;26.20;74.00;;;;;;5090628;27;20502;-62
2023/07/04 11:39:27;;;;;;;41.00;12.13;;;26.60;76.40;;;;;;5064187;27;20932;-62
2023/07/04 11:41:56;;;;;;;39.30;12.83;;;26.80;74.40;;;;;;5080899;27;20507;-62
2023/07/04 11:44:30;;;;;;;25.57;10.40;;;26.90;72.40;;;;;;5060511;28;20445;-62
2023/07/04 11:47:00;;;;;;;50.60;14.23;;;26.80;71.80;;;;;;5105105;27;20731;-62
2023/07/04 11:49:30;;;;;;;38.87;11.43;;;26.80;73.40;;;;;;5071906;28;20453;-62
2023/07/04 11:52:06;;;;;;;49.03;15.23;;;27.10;72.60;;;;;;5087157;27;20667;-63
2023/07/04 11:54:33;;;;;;;38.97;11.77;;;27.10;71.90;;;;;;5063040;28;20457;-62
2023/07/04 11:57:00;;;;;;;53.93;12.50;;;26.90;70.60;;;;;;5079870;27;20847;-62
2023/07/04 11:59:44;;;;;;;42.37;13.60;;;26.90;71.60;;;;;;5053885;28;20453;-62
2023/07/04 12:02:29;;;;;;;36.47;11.50;;;26.90;70.80;;;;;;5067772;27;20461;-62
2023/07/04 12:04:57;;;;;;;43.17;13.50;;;26.90;70.90;;;;;;5122904;27;20457;-63
2023/07/04 12:07:35;;;;;;;37.97;12.17;;;26.80;71.30;;;;;;5124988;27;20888;-63
2023/07/04 12:10:10;;;;;;;53.97;16.23;;;27.00;72.60;;;;;;5124811;27;20451;-63
2023/07/04 12:12:38;;;;;;;43.30;13.33;;;27.30;71.90;;;;;;5117920;27;20975;-63
2023/07/04 12:15:09;;;;;;;78.20;16.87;;;27.30;69.80;;;;;;5117300;27;20485;-63
2023/07/04 12:17:39;;;;;;;33.33;11.33;;;27.10;70.50;;;;;;5074582;27;20455;-64
2023/07/04 12:20:10;;;;;;;45.10;12.90;;;27.10;68.90;;;;;;5105349;27;20478;-63
2023/07/04 12:22:38;;;;;;;45.77;12.57;;;27.40;71.70;;;;;;5095042;27;20864;-63
2023/07/04 12:25:10;;;;;;;56.67;14.90;;;27.50;71.50;;;;;;5122214;27;20450;-63
2023/07/04 12:27:37;;;;;;;27.70;10.17;;;27.60;69.60;;;;;;5122123;27;20480;-63
2023/07/04 12:30:11;;;;;;;57.77;17.43;;;27.90;69.00;;;;;;5113549;27;20937;-63
2023/07/04 12:32:38;;;;;;;27.17;9.67;;;28.00;68.10;;;;;;5114628;27;20452;-63
2023/07/04 12:35:06;;;;;;;56.43;17.07;;;28.10;67.00;;;;;;5125247;27;20444;-63
2023/07/04 12:37:39;;;;;;;37.50;12.53;;;28.00;68.30;;;;;;5130000;27;20477;-63
2023/07/04 12:40:12;;;;;;;53.03;15.67;;;27.60;67.00;;;;;;5123785;27;20445;-63
2023/07/04 12:42:39;;;;;;;37.00;12.10;;;27.50;66.50;;;;;;5070859;27;20961;-63
2023/07/04 12:45:15;;;;;;;72.57;18.20;;;27.20;67.80;;;;;;5091493;27;20919;-64
2023/07/04 12:47:44;;;;;;;37.10;12.80;;;27.20;68.20;;;;;;5108709;27;20942;-63
2023/07/04 12:50:13;;;;;;;38.37;11.80;;;27.10;67.90;;;;;;5121486;27;20513;-63
2023/07/04 12:52:40;;;;;;;30.80;10.43;;;27.10;67.10;;;;;;5116041;27;20804;-62
2023/07/04 12:55:15;;;;;;;51.60;14.93;;;27.10;68.80;;;;;;5088869;27;20474;-63
2023/07/04 12:57:42;;;;;;;41.37;12.53;;;27.40;68.00;;;;;;5091083;27;20481;-63
2023/07/04 13:00:12;;;;;;;32.40;10.60;;;27.40;67.20;;;;;;5073957;27;20473;-63